Time;durP1;ratioP1;P1;durP2;ratioP2;P2;SDS_P1;SDS_P2;PMS_P1;PMS_P2;Temp;Humidity;BMP_temperature;BMP_pressure;BME280_temperature;BME280_humidity;BME280_pressure;Samples;Min_cycle;Max_cycle;Signal;HPM_P1;HPM_P2
2022/07/18 00:01:58;;;;;;;4.25;2.40;;;23.80;47.50;;;;;;5075991;28;20028;-78
2022/07/18 00:04:25;;;;;;;4.80;2.38;;;23.90;47.40;;;;;;5076339;28;20726;-80
2022/07/18 00:06:50;;;;;;;4.63;2.10;;;24.00;47.30;;;;;;5072993;28;20025;-80
2022/07/18 00:09:17;;;;;;;3.67;2.03;;;23.90;47.40;;;;;;5076268;28;20036;-79
2022/07/18 00:11:43;;;;;;;4.05;1.90;;;23.90;47.30;;;;;;5075403;28;20032;-79
2022/07/18 00:14:09;;;;;;;3.10;2.00;;;24.00;47.30;;;;;;5075767;28;20390;-79
2022/07/18 00:16:35;;;;;;;3.35;2.03;;;23.80;47.90;;;;;;5074542;28;20483;-80
2022/07/18 00:19:02;;;;;;;4.18;2.10;;;23.60;48.20;;;;;;5075361;28;20017;-80
2022/07/18 00:21:28;;;;;;;3.67;2.40;;;23.70;48.20;;;;;;5075734;28;20033;-80
2022/07/18 00:23:54;;;;;;;4.65;1.88;;;23.60;47.80;;;;;;5074737;28;20012;-79
2022/07/18 00:26:19;;;;;;;3.22;1.90;;;23.70;47.90;;;;;;5075212;28;20387;-79
2022/07/18 00:28:45;;;;;;;3.92;1.77;;;23.70;47.90;;;;;;5074889;28;20028;-80
2022/07/18 00:31:11;;;;;;;6.15;1.92;;;23.70;48.00;;;;;;5074571;28;20055;-79
2022/07/18 00:33:37;;;;;;;3.30;1.92;;;23.70;48.00;;;;;;5073041;28;20476;-80
2022/07/18 00:36:02;;;;;;;4.07;1.85;;;23.60;48.00;;;;;;5074809;28;20412;-78
2022/07/18 00:38:28;;;;;;;3.20;1.80;;;23.30;48.60;;;;;;5057179;28;20422;-79
2022/07/18 00:40:55;;;;;;;3.38;2.03;;;23.30;48.80;;;;;;5075047;28;20091;-79
2022/07/18 00:43:21;;;;;;;3.70;1.95;;;23.40;48.40;;;;;;5072226;28;20029;-80
2022/07/18 00:45:49;;;;;;;5.18;1.80;;;23.50;48.20;;;;;;5074314;28;20043;-79
2022/07/18 00:48:15;;;;;;;4.90;1.83;;;23.40;47.90;;;;;;5075309;28;20104;-79
2022/07/18 00:50:42;;;;;;;4.38;1.63;;;23.30;47.20;;;;;;5074994;28;20428;-79
2022/07/18 00:53:10;;;;;;;3.83;1.98;;;23.40;47.30;;;;;;5073891;28;20040;-79
2022/07/18 00:55:38;;;;;;;2.80;1.65;;;23.60;47.50;;;;;;5056089;28;20107;-78
2022/07/18 00:58:04;;;;;;;3.35;1.90;;;23.70;47.20;;;;;;5074922;28;20379;-80
2022/07/18 01:03:14;;;;;;;3.47;2.10;;;23.50;47.20;;;;;;5074875;28;20070;-80
2022/07/18 01:05:40;;;;;;;2.95;1.70;;;23.40;47.40;;;;;;5075226;28;20410;-79
2022/07/18 01:08:06;;;;;;;4.00;1.83;;;23.30;47.60;;;;;;5073990;28;20098;-80
2022/07/18 01:10:32;;;;;;;3.35;1.73;;;23.20;47.80;;;;;;5074820;28;20071;-80
2022/07/18 01:12:58;;;;;;;3.45;1.80;;;23.20;47.80;;;;;;5056651;28;20437;-80
2022/07/18 01:15:23;;;;;;;3.83;1.80;;;23.20;47.90;;;;;;5074386;28;20459;-79
2022/07/18 01:17:49;;;;;;;4.15;2.22;;;23.30;47.80;;;;;;5073436;28;20028;-77
2022/07/18 01:20:15;;;;;;;4.60;2.00;;;23.30;47.90;;;;;;5073846;28;20103;-80
2022/07/18 01:22:41;;;;;;;3.47;1.90;;;23.20;48.10;;;;;;5074646;28;20074;-79
2022/07/18 01:25:09;;;;;;;3.35;1.85;;;23.30;48.10;;;;;;5074270;28;20107;-79
2022/07/18 01:27:35;;;;;;;5.57;1.88;;;23.30;48.30;;;;;;5056476;28;20467;-80
2022/07/18 01:30:01;;;;;;;3.50;2.00;;;23.30;48.10;;;;;;5073891;28;20033;-76
2022/07/18 01:32:30;;;;;;;5.97;2.00;;;23.30;48.10;;;;;;5073743;28;20040;-80
2022/07/18 01:34:56;;;;;;;3.38;1.83;;;23.20;48.30;;;;;;5074414;28;20021;-79
2022/07/18 01:37:22;;;;;;;3.03;1.80;;;23.00;48.60;;;;;;5056528;28;20368;-77
2022/07/18 01:39:48;;;;;;;5.88;1.90;;;22.90;48.50;;;;;;5072623;28;20117;-79
2022/07/18 01:42:14;;;;;;;4.15;1.80;;;22.90;49.00;;;;;;5074872;28;20050;-79
2022/07/18 01:44:42;;;;;;;3.20;1.90;;;22.90;48.80;;;;;;5078264;28;20039;-79
2022/07/18 01:47:10;;;;;;;4.05;1.88;;;23.00;48.70;;;;;;5076978;28;20040;-78
2022/07/18 01:49:36;;;;;;;3.25;1.98;;;23.20;48.70;;;;;;5077944;28;20021;-79
2022/07/18 01:52:02;;;;;;;5.28;1.88;;;23.00;49.00;;;;;;5077128;28;20077;-78
2022/07/18 01:54:31;;;;;;;3.22;1.90;;;23.10;48.90;;;;;;5060375;28;20468;-79
2022/07/18 01:56:59;;;;;;;3.97;1.95;;;23.20;48.70;;;;;;5076654;28;20034;-79
2022/07/18 01:59:25;;;;;;;4.38;1.92;;;23.10;48.70;;;;;;5078456;28;20383;-79
2022/07/18 02:01:51;;;;;;;4.50;1.90;;;22.90;49.20;;;;;;5077859;28;20027;-78
2022/07/18 02:04:17;;;;;;;4.85;2.00;;;22.80;49.30;;;;;;5077607;28;20017;-79
2022/07/18 02:06:43;;;;;;;2.80;1.80;;;22.90;49.00;;;;;;5078125;28;20372;-80
2022/07/18 02:09:09;;;;;;;3.30;1.85;;;23.10;48.80;;;;;;5048920;28;20431;-80
2022/07/18 02:11:36;;;;;;;3.90;1.70;;;23.10;48.70;;;;;;5057426;28;20067;-79
2022/07/18 02:14:04;;;;;;;3.13;1.80;;;23.20;48.60;;;;;;5065500;28;20025;-79
2022/07/18 02:16:30;;;;;;;3.40;1.80;;;22.90;48.90;;;;;;5077700;28;20383;-79
2022/07/18 02:18:57;;;;;;;5.82;1.98;;;22.90;49.10;;;;;;5077675;28;20066;-79
2022/07/18 02:21:22;;;;;;;3.97;2.10;;;22.80;49.00;;;;;;5076289;28;20024;-78
2022/07/18 02:23:50;;;;;;;3.25;1.80;;;22.70;49.20;;;;;;5077569;28;20040;-78
2022/07/18 02:26:17;;;;;;;3.67;1.92;;;22.60;49.90;;;;;;5077137;28;20013;-79
2022/07/18 02:28:43;;;;;;;3.75;1.88;;;22.70;49.60;;;;;;5076632;28;20032;-77
2022/07/18 02:31:09;;;;;;;5.60;1.90;;;22.60;50.00;;;;;;5077109;28;20054;-79
2022/07/18 02:33:34;;;;;;;4.13;1.90;;;22.50;50.10;;;;;;5077327;28;20052;-79
2022/07/18 02:36:01;;;;;;;3.60;1.88;;;22.70;49.90;;;;;;5077526;28;20077;-79
2022/07/18 02:38:26;;;;;;;4.68;2.28;;;22.90;49.70;;;;;;5076161;28;20064;-79
2022/07/18 02:40:52;;;;;;;5.75;2.00;;;23.10;49.30;;;;;;5077085;28;20048;-76
2022/07/18 02:43:18;;;;;;;2.83;1.70;;;22.90;49.20;;;;;;5077486;28;20028;-78
2022/07/18 02:45:44;;;;;;;3.60;1.83;;;22.80;49.20;;;;;;5077044;28;20534;-79
2022/07/18 02:48:09;;;;;;;6.32;1.90;;;22.70;49.60;;;;;;5075411;28;20416;-79
2022/07/18 02:50:35;;;;;;;3.33;1.92;;;22.80;49.40;;;;;;5076141;28;20460;-79
2022/07/18 02:53:01;;;;;;;5.05;2.03;;;22.90;49.20;;;;;;5076781;28;20040;-79
2022/07/18 02:55:26;;;;;;;4.50;2.10;;;22.90;49.20;;;;;;5077150;28;20043;-79
2022/07/18 02:57:52;;;;;;;4.47;2.03;;;22.80;49.10;;;;;;5075673;28;20067;-78
2022/07/18 03:00:18;;;;;;;4.45;1.80;;;22.80;49.20;;;;;;5076971;28;20103;-79
2022/07/18 03:02:45;;;;;;;4.78;2.00;;;22.70;49.10;;;;;;5076749;28;20414;-80
2022/07/18 03:05:12;;;;;;;3.95;2.10;;;22.50;49.40;;;;;;5076357;28;20024;-79
2022/07/18 03:07:38;;;;;;;3.42;1.88;;;22.30;49.80;;;;;;5074749;28;20032;-80
2022/07/18 03:10:05;;;;;;;3.97;1.92;;;22.10;50.30;;;;;;5076448;28;20024;-79
2022/07/18 03:12:31;;;;;;;3.50;1.90;;;22.30;50.10;;;;;;5076539;28;20134;-79
2022/07/18 03:14:57;;;;;;;5.28;2.15;;;22.50;49.80;;;;;;5076224;28;20080;-78
2022/07/18 03:17:22;;;;;;;3.63;1.77;;;22.70;49.40;;;;;;5057632;28;20024;-78
2022/07/18 03:19:48;;;;;;;5.63;2.00;;;22.60;49.30;;;;;;5076706;28;20086;-78
2022/07/18 03:22:14;;;;;;;3.90;2.05;;;22.90;49.20;;;;;;5076075;28;20027;-78
2022/07/18 03:24:39;;;;;;;3.85;1.90;;;22.70;49.20;;;;;;5076588;28;20519;-79
2022/07/18 03:27:05;;;;;;;3.83;1.90;;;22.70;49.40;;;;;;5076258;28;20047;-78
2022/07/18 03:29:31;;;;;;;3.78;1.95;;;22.60;49.20;;;;;;5057620;28;20218;-79
2022/07/18 03:31:56;;;;;;;4.25;2.10;;;22.60;49.40;;;;;;5076241;28;20055;-79
2022/07/18 03:34:22;;;;;;;3.60;1.90;;;22.40;49.70;;;;;;5076333;28;20043;-78
2022/07/18 03:36:48;;;;;;;4.13;1.70;;;22.20;50.30;;;;;;5075489;28;20021;-78
2022/07/18 03:39:15;;;;;;;3.85;2.15;;;22.00;50.80;;;;;;5075956;28;20097;-78
2022/07/18 03:41:40;;;;;;;4.25;2.22;;;21.70;51.80;;;;;;5074958;28;20024;-78
2022/07/18 03:44:06;;;;;;;4.63;2.17;;;21.60;51.90;;;;;;5075090;28;20031;-78
2022/07/18 03:46:32;;;;;;;6.78;2.20;;;21.80;51.80;;;;;;5075701;28;20074;-78
2022/07/18 03:48:58;;;;;;;4.47;2.35;;;21.90;51.80;;;;;;5076124;28;20387;-79
2022/07/18 03:51:24;;;;;;;5.13;1.80;;;22.00;52.10;;;;;;5075446;28;20044;-78
2022/07/18 03:53:50;;;;;;;3.45;1.85;;;22.20;51.70;;;;;;5073447;28;20043;-80
2022/07/18 03:56:16;;;;;;;3.65;1.90;;;22.40;50.90;;;;;;5075970;28;20032;-79
2022/07/18 03:58:42;;;;;;;3.28;1.83;;;22.60;49.70;;;;;;5075260;28;20503;-78
2022/07/18 04:01:08;;;;;;;3.17;1.95;;;22.70;48.40;;;;;;5075687;28;20430;-80
2022/07/18 04:03:34;;;;;;;6.10;1.83;;;22.80;47.80;;;;;;5075914;28;20052;-79
2022/07/18 04:06:00;;;;;;;5.05;2.00;;;22.90;47.70;;;;;;5073050;28;20519;-78
2022/07/18 04:08:25;;;;;;;3.88;1.90;;;22.80;47.90;;;;;;5073797;28;20036;-78
2022/07/18 04:10:51;;;;;;;3.40;1.85;;;22.90;47.80;;;;;;5074197;28;20025;-79
2022/07/18 04:13:17;;;;;;;4.85;1.80;;;23.20;47.30;;;;;;5075408;28;20162;-79
2022/07/18 04:15:43;;;;;;;3.35;1.80;;;23.40;46.90;;;;;;5074240;28;20031;-79
2022/07/18 04:18:09;;;;;;;5.00;2.05;;;23.60;47.00;;;;;;5075661;28;20060;-78
2022/07/18 04:20:36;;;;;;;5.28;1.88;;;23.40;47.40;;;;;;5075201;28;20470;-78
2022/07/18 04:23:05;;;;;;;3.92;1.90;;;23.30;48.00;;;;;;5075054;28;20055;-78
2022/07/18 04:25:37;;;;;;;5.18;1.92;;;23.50;48.00;;;;;;5074008;28;20028;-78
2022/07/18 04:28:04;;;;;;;4.15;1.90;;;23.60;47.90;;;;;;5075461;28;20024;-78
2022/07/18 04:30:30;;;;;;;3.08;1.63;;;23.90;47.40;;;;;;5074645;28;20075;-78
2022/07/18 04:32:57;;;;;;;3.22;1.83;;;23.90;47.30;;;;;;5072726;28;20044;-78
2022/07/18 04:35:23;;;;;;;4.80;1.92;;;24.00;46.40;;;;;;5072655;28;20530;-77
2022/07/18 04:37:50;;;;;;;3.40;1.80;;;24.10;46.10;;;;;;5074540;28;20030;-77
2022/07/18 04:40:17;;;;;;;4.15;2.20;;;24.30;45.30;;;;;;5074314;28;20108;-79
2022/07/18 04:42:43;;;;;;;3.95;1.88;;;24.50;45.00;;;;;;5073419;28;20095;-78
2022/07/18 04:45:09;;;;;;;5.70;2.35;;;24.60;45.00;;;;;;5073907;28;20082;-77
2022/07/18 04:47:35;;;;;;;3.85;1.80;;;24.70;44.40;;;;;;5074648;28;20051;-79
2022/07/18 04:50:00;;;;;;;3.63;1.80;;;24.80;44.20;;;;;;5056461;28;20119;-78
2022/07/18 04:52:27;;;;;;;5.38;2.00;;;25.00;43.80;;;;;;5074956;28;20039;-78
2022/07/18 04:54:54;;;;;;;5.78;1.73;;;25.10;43.50;;;;;;5073890;28;20040;-79
2022/07/18 04:57:20;;;;;;;4.50;2.15;;;25.30;44.00;;;;;;5073446;28;20035;-80
2022/07/18 04:59:46;;;;;;;6.13;2.08;;;25.40;43.40;;;;;;5074854;28;20093;-80
2022/07/18 05:02:12;;;;;;;4.78;1.83;;;25.30;43.90;;;;;;5074940;28;20077;-80
2022/07/18 05:04:39;;;;;;;3.42;1.80;;;25.00;44.00;;;;;;5072886;28;20044;-77
2022/07/18 05:07:06;;;;;;;3.60;1.92;;;25.10;43.30;;;;;;5054439;28;20028;-78
2022/07/18 05:09:33;;;;;;;4.57;1.80;;;25.20;43.70;;;;;;5055514;28;20035;-79
2022/07/18 05:11:59;;;;;;;5.15;1.90;;;25.30;44.20;;;;;;5055492;28;20037;-79
2022/07/18 05:14:24;;;;;;;3.83;1.77;;;25.40;44.00;;;;;;5074087;28;20043;-78
2022/07/18 05:16:50;;;;;;;3.38;1.70;;;25.10;43.20;;;;;;5074449;28;20028;-80
2022/07/18 05:19:16;;;;;;;3.30;1.70;;;25.10;43.90;;;;;;5054914;28;20059;-79
2022/07/18 05:21:43;;;;;;;3.85;1.70;;;25.10;44.30;;;;;;5074783;28;20032;-79
2022/07/18 05:24:08;;;;;;;3.08;1.60;;;25.30;44.10;;;;;;5055842;28;20027;-77
2022/07/18 05:26:34;;;;;;;3.15;1.70;;;25.40;44.10;;;;;;5074018;28;20029;-80
2022/07/18 05:29:00;;;;;;;4.85;1.83;;;25.40;44.80;;;;;;5074302;28;20028;-79
2022/07/18 05:31:26;;;;;;;6.88;1.70;;;25.70;43.80;;;;;;5072696;28;20376;-79
2022/07/18 05:33:51;;;;;;;4.10;1.83;;;25.90;44.60;;;;;;5056657;28;20032;-79
2022/07/18 05:36:17;;;;;;;3.55;1.90;;;26.10;43.70;;;;;;5055464;28;20063;-80
2022/07/18 05:38:43;;;;;;;4.97;2.00;;;26.00;43.40;;;;;;5071631;28;20054;-79
2022/07/18 05:41:09;;;;;;;3.38;1.90;;;25.70;44.00;;;;;;5072819;28;20103;-77
2022/07/18 05:43:34;;;;;;;4.05;1.73;;;25.90;44.20;;;;;;5036421;28;20044;-80
2022/07/18 05:46:00;;;;;;;5.85;1.98;;;26.20;44.30;;;;;;5048701;28;20028;-79
2022/07/18 05:48:26;;;;;;;6.05;2.13;;;26.30;44.10;;;;;;5071706;28;20534;-82
2022/07/18 05:50:52;;;;;;;3.75;1.90;;;26.60;44.30;;;;;;5083368;28;20078;-79
2022/07/18 05:53:18;;;;;;;3.95;1.90;;;26.90;42.80;;;;;;5055460;28;20037;-78
2022/07/18 05:55:43;;;;;;;4.65;1.70;;;27.10;43.20;;;;;;5055798;28;20028;-80
2022/07/18 05:58:09;;;;;;;4.53;1.77;;;26.90;43.00;;;;;;5074074;28;20052;-81
2022/07/18 06:00:35;;;;;;;6.55;1.90;;;27.00;43.20;;;;;;5073990;28;20093;-81
2022/07/18 06:03:01;;;;;;;3.50;1.73;;;26.60;43.40;;;;;;5073948;28;20020;-80
2022/07/18 06:05:27;;;;;;;5.22;1.95;;;26.50;42.60;;;;;;5055231;28;20028;-73
2022/07/18 06:07:54;;;;;;;3.15;1.80;;;26.60;42.10;;;;;;5073475;28;20356;-75
2022/07/18 06:10:20;;;;;;;4.40;2.08;;;26.10;42.90;;;;;;5072580;28;20379;-80
2022/07/18 06:12:46;;;;;;;3.83;1.75;;;25.70;42.80;;;;;;5080330;28;20036;-78
2022/07/18 06:15:13;;;;;;;6.07;1.92;;;25.90;43.30;;;;;;5071948;28;20040;-76
2022/07/18 06:17:38;;;;;;;3.85;1.95;;;25.50;42.70;;;;;;5073283;28;20055;-85
2022/07/18 06:20:07;;;;;;;4.75;1.98;;;25.50;44.30;;;;;;5055547;28;20089;-80
2022/07/18 06:22:34;;;;;;;3.20;1.90;;;26.30;42.90;;;;;;5072060;28;20482;-79
2022/07/18 06:25:00;;;;;;;3.50;1.80;;;26.50;42.10;;;;;;5073572;28;20099;-81
2022/07/18 06:27:25;;;;;;;5.28;1.80;;;26.60;43.40;;;;;;5073613;28;20112;-78
2022/07/18 06:29:51;;;;;;;3.70;1.83;;;27.20;41.60;;;;;;5076693;28;20108;-82
2022/07/18 06:32:17;;;;;;;4.60;1.70;;;27.40;42.20;;;;;;5075982;28;20051;-80
2022/07/18 06:34:42;;;;;;;5.32;1.75;;;27.40;42.10;;;;;;5076414;28;20021;-78
2022/07/18 06:37:08;;;;;;;5.20;1.77;;;27.40;42.20;;;;;;4725192;28;9999791;-80
2022/07/18 06:39:34;;;;;;;3.35;1.80;;;27.30;42.00;;;;;;5074443;28;20421;-77
2022/07/18 06:41:59;;;;;;;3.67;1.63;;;27.60;42.10;;;;;;5084225;28;20031;-79
2022/07/18 06:44:25;;;;;;;3.30;1.58;;;27.90;41.90;;;;;;5066539;28;20479;-78
2022/07/18 06:46:52;;;;;;;3.67;1.70;;;27.80;42.20;;;;;;5077971;28;20042;-81
2022/07/18 06:49:18;;;;;;;5.45;1.70;;;27.80;42.40;;;;;;5056033;28;20028;-78
2022/07/18 06:51:44;;;;;;;4.32;1.77;;;27.80;42.00;;;;;;5073491;28;20016;-81
2022/07/18 06:54:09;;;;;;;2.95;1.60;;;27.90;42.40;;;;;;5056512;28;20352;-83
2022/07/18 06:56:35;;;;;;;5.00;1.83;;;28.00;41.90;;;;;;5056795;28;20021;-80
2022/07/18 06:59:01;;;;;;;5.75;1.70;;;28.20;41.70;;;;;;5074117;28;20047;-80
2022/07/18 07:01:26;;;;;;;4.25;1.65;;;28.20;41.60;;;;;;5056361;28;20025;-79
2022/07/18 07:03:52;;;;;;;3.92;1.70;;;28.40;42.20;;;;;;5054301;28;20030;-78
2022/07/18 07:06:18;;;;;;;5.20;1.90;;;28.30;42.20;;;;;;5073621;28;20029;-79
2022/07/18 07:08:44;;;;;;;4.95;1.90;;;28.00;43.00;;;;;;5054687;28;20029;-78
2022/07/18 07:11:09;;;;;;;4.63;1.77;;;28.20;42.70;;;;;;4723843;28;10000401;-76
2022/07/18 07:13:35;;;;;;;4.22;1.80;;;28.20;42.50;;;;;;5073578;28;20403;-78
2022/07/18 07:16:01;;;;;;;4.47;1.70;;;28.30;41.50;;;;;;5073099;28;20028;-78
2022/07/18 07:18:27;;;;;;;5.20;1.60;;;28.40;41.50;;;;;;5073027;28;20103;-78
2022/07/18 07:20:52;;;;;;;5.22;1.90;;;28.40;41.70;;;;;;5074785;28;20033;-78
2022/07/18 07:23:18;;;;;;;3.13;1.60;;;28.40;41.60;;;;;;5070264;28;20033;-78
2022/07/18 07:25:44;;;;;;;4.03;1.75;;;28.30;41.70;;;;;;5056323;28;20070;-79
2022/07/18 07:28:09;;;;;;;3.30;1.63;;;28.50;42.00;;;;;;5056103;28;20135;-78
2022/07/18 07:30:35;;;;;;;5.07;1.60;;;28.90;41.40;;;;;;5055859;28;20491;-79
2022/07/18 07:33:02;;;;;;;5.82;1.65;;;28.90;41.40;;;;;;5055785;28;20165;-80
2022/07/18 07:35:28;;;;;;;6.10;1.77;;;29.10;41.50;;;;;;5056240;28;20365;-80
2022/07/18 07:37:56;;;;;;;3.80;1.65;;;29.30;41.20;;;;;;5056276;28;20025;-79
2022/07/18 07:40:26;;;;;;;3.63;1.83;;;29.70;40.70;;;;;;5036943;28;20166;-76
2022/07/18 07:42:52;;;;;;;5.72;1.88;;;29.60;39.70;;;;;;5038366;28;20048;-76
2022/07/18 07:45:19;;;;;;;24.05;2.13;;;29.50;40.40;;;;;;5055729;28;20025;-79
2022/07/18 07:47:45;;;;;;;3.55;1.60;;;29.00;40.90;;;;;;5055848;28;20387;-79
2022/07/18 07:50:12;;;;;;;5.70;1.80;;;29.10;41.20;;;;;;5056027;28;20025;-84
2022/07/18 07:52:38;;;;;;;3.17;1.42;;;29.20;40.10;;;;;;5055744;28;20058;-76
2022/07/18 07:55:05;;;;;;;3.10;1.60;;;29.10;40.90;;;;;;5056019;28;20021;-81
2022/07/18 07:57:32;;;;;;;3.58;1.55;;;29.10;40.80;;;;;;5056255;28;20029;-79
2022/07/18 07:59:57;;;;;;;3.20;1.67;;;29.30;40.40;;;;;;5055553;28;20491;-79
2022/07/18 08:02:23;;;;;;;4.28;1.80;;;29.30;40.90;;;;;;5055606;28;20116;-76
2022/07/18 08:04:50;;;;;;;4.07;1.67;;;29.60;39.50;;;;;;5055755;28;20051;-76
2022/07/18 08:07:16;;;;;;;3.55;1.90;;;29.80;40.90;;;;;;5055869;28;20025;-79
2022/07/18 08:09:41;;;;;;;3.45;1.67;;;29.90;40.80;;;;;;5037729;28;20037;-78
2022/07/18 08:12:07;;;;;;;4.65;1.85;;;30.00;40.30;;;;;;5037842;28;20082;-78
2022/07/18 08:14:33;;;;;;;5.15;1.70;;;30.20;40.10;;;;;;5037985;28;20040;-86
2022/07/18 08:16:59;;;;;;;3.85;2.08;;;30.10;39.30;;;;;;5037147;28;20041;-78
2022/07/18 08:19:25;;;;;;;3.83;1.63;;;30.10;39.60;;;;;;5055946;28;20414;-76
2022/07/18 08:21:51;;;;;;;3.75;1.80;;;30.20;40.60;;;;;;5056322;28;20079;-83
2022/07/18 08:24:17;;;;;;;4.40;1.80;;;30.50;39.90;;;;;;5037984;28;20040;-81
2022/07/18 08:26:42;;;;;;;3.08;1.70;;;30.70;38.90;;;;;;5056126;28;20375;-79
2022/07/18 08:29:08;;;;;;;7.32;1.65;;;30.90;38.80;;;;;;5070638;28;20029;-79
2022/07/18 08:31:34;;;;;;;3.83;1.80;;;30.90;39.40;;;;;;5055230;28;20206;-83
2022/07/18 08:34:00;;;;;;;4.35;1.75;;;30.70;39.60;;;;;;5037352;28;20044;-80
2022/07/18 08:36:26;;;;;;;4.78;1.70;;;31.10;38.80;;;;;;5057086;28;20040;-85
2022/07/18 08:38:52;;;;;;;5.78;1.80;;;31.40;39.20;;;;;;5056442;28;20053;-84
2022/07/18 08:41:18;;;;;;;3.65;1.80;;;31.80;39.50;;;;;;5036760;28;20053;-76
2022/07/18 08:43:45;;;;;;;4.43;1.70;;;31.50;38.30;;;;;;5054704;28;20027;-79
2022/07/18 08:46:12;;;;;;;4.75;1.70;;;31.10;38.70;;;;;;5055103;28;20021;-84
2022/07/18 08:48:42;;;;;;;3.95;1.77;;;31.10;38.70;;;;;;5055233;28;20025;-80
2022/07/18 08:51:08;;;;;;;3.85;1.85;;;31.30;38.00;;;;;;5054313;28;20035;-85
2022/07/18 08:53:37;;;;;;;2.60;1.52;;;31.10;38.00;;;;;;5072040;28;20036;-81
2022/07/18 08:56:06;;;;;;;4.78;1.75;;;31.60;39.10;;;;;;5071569;28;20021;-86
2022/07/18 08:58:32;;;;;;;5.68;1.75;;;32.10;38.00;;;;;;5056106;28;20047;-82
2022/07/18 09:00:58;;;;;;;3.90;1.80;;;32.50;37.60;;;;;;5034434;28;20024;-78
2022/07/18 09:03:24;;;;;;;3.97;1.60;;;32.50;38.30;;;;;;5054951;28;20047;-75
2022/07/18 09:06:12;;;;;;;2.83;1.55;;;32.50;38.60;;;;;;5055172;28;20476;-78
2022/07/18 09:09:01;;;;;;;5.63;1.83;;;32.50;38.10;;;;;;4356908;28;10000408;-77
2022/07/18 09:11:26;;;;;;;6.82;1.70;;;31.90;37.20;;;;;;5036081;28;20380;-78
2022/07/18 09:13:52;;;;;;;4.15;1.60;;;31.70;37.40;;;;;;5053913;28;20028;-79
2022/07/18 09:16:18;;;;;;;3.80;1.80;;;31.60;37.40;;;;;;5052833;28;20021;-78
2022/07/18 09:18:46;;;;;;;4.70;1.80;;;31.60;38.10;;;;;;5053721;28;20025;-80
2022/07/18 09:21:14;;;;;;;4.40;1.90;;;31.60;37.40;;;;;;5037301;28;20029;-84
2022/07/18 09:23:42;;;;;;;4.25;1.70;;;31.90;37.30;;;;;;5054443;28;20021;-79
2022/07/18 09:26:09;;;;;;;3.90;1.60;;;32.40;37.60;;;;;;5035439;28;20033;-79
2022/07/18 09:28:53;;;;;;;3.13;1.70;;;32.30;36.50;;;;;;5054623;28;20376;-86
2022/07/18 09:31:25;;;;;;;3.10;1.73;;;32.20;36.90;;;;;;5055078;28;20104;-80
2022/07/18 09:33:53;;;;;;;4.25;1.70;;;32.50;37.10;;;;;;5036674;28;20025;-85
2022/07/18 09:36:19;;;;;;;5.05;2.10;;;32.60;36.40;;;;;;5036693;28;20060;-86
2022/07/18 09:38:45;;;;;;;3.53;1.70;;;32.30;36.60;;;;;;5037840;28;20048;-83
2022/07/18 09:41:11;;;;;;;3.05;1.50;;;32.60;36.60;;;;;;5055079;28;20485;-81
2022/07/18 09:43:38;;;;;;;3.95;1.70;;;33.00;36.70;;;;;;5055151;28;20025;-81
2022/07/18 09:46:05;;;;;;;4.85;1.90;;;33.00;35.50;;;;;;5054861;28;20376;-87
2022/07/18 09:48:31;;;;;;;5.45;2.10;;;33.00;35.90;;;;;;5055845;28;20078;-86
2022/07/18 09:51:03;;;;;;;3.72;1.90;;;33.30;35.90;;;;;;5054877;28;20033;-87
2022/07/18 09:53:40;;;;;;;4.70;1.85;;;33.70;36.00;;;;;;5053587;28;20037;-85
2022/07/18 09:56:22;;;;;;;6.88;1.85;;;33.50;36.60;;;;;;5049824;28;20451;-82
2022/07/18 09:58:55;;;;;;;2.95;1.60;;;33.50;35.90;;;;;;5054510;28;20032;-86
2022/07/18 10:01:21;;;;;;;3.47;1.70;;;33.30;35.80;;;;;;5037280;28;20098;-78
2022/07/18 10:03:51;;;;;;;3.33;1.85;;;33.10;35.70;;;;;;5038112;28;20025;-82
2022/07/18 10:06:21;;;;;;;3.65;1.60;;;33.00;35.90;;;;;;5058715;28;20065;-86
2022/07/18 10:08:47;;;;;;;;;;;33.20;35.60;;;;;;5058765;28;20024;-84
2022/07/18 10:11:13;;;;;;;3.70;1.77;;;33.30;35.20;;;;;;5056369;28;19904;-79
2022/07/18 10:13:39;;;;;;;3.58;2.28;;;33.30;35.00;;;;;;5058544;28;20025;-86
2022/07/18 10:16:05;;;;;;;3.10;1.88;;;33.00;35.10;;;;;;5040803;28;20025;-85
2022/07/18 10:18:34;;;;;;;3.83;1.75;;;33.00;35.80;;;;;;5058212;28;20079;-84
2022/07/18 10:21:10;;;;;;;4.38;1.80;;;33.00;33.90;;;;;;5042898;28;20114;-79
2022/07/18 10:23:46;;;;;;;3.72;2.25;;;33.00;34.10;;;;;;5077401;28;20384;-80
2022/07/18 10:26:26;;;;;;;7.45;1.80;;;33.10;34.40;;;;;;5076793;28;20123;-77
2022/07/18 10:29:00;;;;;;;2.97;1.80;;;32.30;35.30;;;;;;5077289;28;20471;-81
2022/07/18 10:31:37;;;;;;;3.45;2.53;;;31.70;35.10;;;;;;5078394;28;20044;-90
2022/07/18 10:34:06;;;;;;;7.88;2.30;;;32.30;35.50;;;;;;5077397;28;20025;-85
2022/07/18 10:36:54;;;;;;;3.13;1.88;;;33.00;35.40;;;;;;5077549;28;20032;-76
2022/07/18 10:39:21;;;;;;;3.25;2.25;;;33.10;34.60;;;;;;5068254;28;20119;-82
2022/07/18 10:41:46;;;;;;;4.30;3.42;;;33.40;34.90;;;;;;5077385;28;20032;-79
2022/07/18 10:47:12;;;;;;;3.70;2.25;;;34.00;34.90;;;;;;5078070;28;20029;-79
2022/07/18 10:52:28;;;;;;;4.20;3.75;;;33.90;34.70;;;;;;5077065;28;20467;-77
2022/07/18 10:55:08;;;;;;;3.30;2.70;;;33.70;35.60;;;;;;5077432;28;20421;-79
2022/07/18 10:57:38;;;;;;;5.18;2.88;;;33.80;34.20;;;;;;5078316;28;20451;-85
2022/07/18 11:00:11;;;;;;;6.20;2.73;;;33.60;34.60;;;;;;5059074;28;20683;-87
2022/07/18 11:02:42;;;;;;;5.80;1.95;;;34.00;35.10;;;;;;5059199;28;20311;-78
2022/07/18 11:05:23;;;;;;;3.72;1.77;;;33.90;34.30;;;;;;5076837;28;20390;-80
2022/07/18 11:07:57;;;;;;;5.05;1.85;;;33.70;34.60;;;;;;5076526;28;20055;-75
2022/07/18 11:10:45;;;;;;;4.13;2.90;;;33.20;33.30;;;;;;5078344;28;20016;-83
2022/07/18 11:13:28;;;;;;;6.32;2.92;;;33.10;34.90;;;;;;5076580;28;20028;-80
2022/07/18 11:16:14;;;;;;;3.08;1.98;;;33.30;33.90;;;;;;5059191;28;20025;-80
2022/07/18 11:18:40;;;;;;;3.03;1.90;;;33.70;34.40;;;;;;5060297;28;20491;-84
2022/07/18 11:21:31;;;;;;;4.35;1.90;;;34.10;35.30;;;;;;5077474;28;20019;-84
2022/07/18 11:24:02;;;;;;;7.15;1.80;;;34.30;34.40;;;;;;5076722;28;20025;-81
2022/07/18 11:26:29;;;;;;;3.30;3.00;;;34.50;34.50;;;;;;5075885;28;20025;-80
2022/07/18 11:29:05;;;;;;;4.35;2.17;;;34.30;33.70;;;;;;5076853;28;20103;-76
2022/07/18 11:31:42;;;;;;;3.13;1.75;;;34.20;34.20;;;;;;5076264;28;20048;-89
2022/07/18 11:34:07;;;;;;;3.78;1.80;;;34.00;34.80;;;;;;5058827;28;20578;-80
2022/07/18 11:36:33;;;;;;;2.88;2.20;;;34.30;34.80;;;;;;5076239;28;20073;-78
2022/07/18 11:39:03;;;;;;;3.40;2.63;;;34.50;32.90;;;;;;5076065;28;20032;-80
2022/07/18 11:41:29;;;;;;;;;;;34.10;34.30;;;;;;5076734;28;20020;-85
2022/07/18 11:43:56;;;;;;;2.83;1.80;;;34.10;34.20;;;;;;5057554;28;20041;-79
2022/07/18 11:46:24;;;;;;;3.85;2.97;;;34.20;34.20;;;;;;5057886;28;20025;-81
2022/07/18 11:49:06;;;;;;;4.60;1.95;;;34.20;34.50;;;;;;5075857;28;20482;-76
2022/07/18 11:51:38;;;;;;;5.13;2.95;;;34.30;33.70;;;;;;5076958;28;20056;-82
2022/07/18 11:54:05;;;;;;;3.13;1.92;;;34.20;34.60;;;;;;5058764;28;20060;-91
2022/07/18 11:56:31;;;;;;;4.15;1.98;;;34.60;34.80;;;;;;5058401;28;20020;-82
2022/07/18 11:58:57;;;;;;;5.22;3.35;;;34.80;34.30;;;;;;5075028;28;20059;-76
2022/07/18 12:01:33;;;;;;;7.07;6.45;;;34.70;33.20;;;;;;5075601;28;20020;-82
2022/07/18 12:03:59;;;;;;;4.97;2.50;;;34.60;33.80;;;;;;5075059;28;20047;-79
2022/07/18 12:06:27;;;;;;;8.48;2.60;;;34.50;33.80;;;;;;5075310;28;20028;-79
2022/07/18 12:09:04;;;;;;;3.47;2.33;;;34.30;34.20;;;;;;5075331;28;20024;-76
2022/07/18 12:11:35;;;;;;;3.67;2.38;;;33.90;34.20;;;;;;5075369;28;20028;-81
2022/07/18 12:14:00;;;;;;;4.38;2.83;;;33.70;34.60;;;;;;5076383;28;20029;-82
2022/07/18 12:16:30;;;;;;;2.90;2.28;;;34.00;34.40;;;;;;5057209;28;20077;-77
2022/07/18 12:19:02;;;;;;;3.33;2.40;;;33.90;34.10;;;;;;5076279;28;20031;-75
2022/07/18 12:21:49;;;;;;;6.95;3.75;;;33.70;34.70;;;;;;5074703;28;20025;-78
2022/07/18 12:24:24;;;;;;;4.13;2.15;;;33.20;34.70;;;;;;5057194;28;20440;-80
2022/07/18 12:27:09;;;;;;;2.95;1.88;;;33.10;34.80;;;;;;5056627;28;20055;-84
2022/07/18 12:30:03;;;;;;;3.75;2.38;;;32.80;34.90;;;;;;5076045;28;20028;-89
2022/07/18 12:32:52;;;;;;;7.90;4.25;;;33.30;34.30;;;;;;5057326;28;20097;-80
2022/07/18 12:35:20;;;;;;;10.98;2.50;;;33.90;34.70;;;;;;5074959;28;20017;-79
2022/07/18 12:38:16;;;;;;;3.10;1.70;;;34.00;34.90;;;;;;5074871;28;20024;-77
2022/07/18 12:40:47;;;;;;;4.55;1.60;;;34.10;34.70;;;;;;5072982;28;20044;-78
2022/07/18 12:43:35;;;;;;;4.10;2.80;;;34.40;35.00;;;;;;5074965;28;20032;-80
2022/07/18 12:46:03;;;;;;;4.07;1.80;;;34.50;34.90;;;;;;5075105;28;20097;-79
2022/07/18 12:48:30;;;;;;;4.65;1.80;;;34.80;35.40;;;;;;5075019;28;20401;-84
2022/07/18 12:51:00;;;;;;;4.93;2.65;;;34.80;35.00;;;;;;5074492;28;20032;-83
2022/07/18 12:53:26;;;;;;;3.97;2.40;;;34.70;34.40;;;;;;5056780;28;20048;-83
2022/07/18 12:55:52;;;;;;;4.85;1.70;;;34.60;35.00;;;;;;5075008;28;20036;-80
2022/07/18 12:58:18;;;;;;;3.00;1.90;;;34.90;35.80;;;;;;5074422;28;20082;-79
2022/07/18 13:00:46;;;;;;;2.92;1.58;;;35.20;34.50;;;;;;5074453;28;20028;-81